Etusivu
METAR-TAF:

METAR-TAF

Lentoasemat :

Tegucigalpa, Honduras

Toncontínin kansainvälinen lentoasema

Leveyspiiri: 14-03N, Pituuspiiri: 087-13W, korkeus merenpinnasta: 994 m

Tämänhetkinen sää

Tämä raportti tehtiin 12 minuuttia sitten, kello 20.00 UTC
Tuuli 16 kn pohjoisesta
Lämpötila 29°C
Kosteus 31%
Ilmanpaine 1019 hPa
Näkyvyys 10 km tai enemmän
Hajanaisia pilviä 3000 ft:n korkeudessa

METAR: MHTG 232000Z 36016KT 9999 SCT030 29/10 Q1019 A3009 NOSIG

Aika: 14:12 (20:12 UTC)

Sääennuste

Tämä raportti tehtiin 5 tuntia ja 2 minuuttia sitten, kello 15.10 UTC
Ennuste voimassa 23. päivästä klo 18 UTC - 24. päivään klo 18 UTC
Tuuli 8 kn pohjoisesta puuskistuen 18 kn:hen
Näkyvyys 10 km tai enemmän
Muutamia pilviä 3000 ft:n korkeudessa

TAF: MHTG 231510Z 2318/2418 36008G18KT 9999 FEW030 TX29/2320Z TN12/2412Z

Säähavainnot ja -ennusteet yli 4000 lentoasemalta (METAR- ja TAF-raportit).

Käytössä olevat sääasemat on merkitty karttaan keltaisilla ja punaisilla pisteillä.

Aseta hiiri pisteen päälle nähdäksesi sääaseman nimen.

Klikkaa sitten nähdäksesi säähavainnot ja -ennusteet.

Kartan vaihtaminen: klikkaa mustalla rastilla varustettuja vihreitä pisteitä, niin voit zoomata sisään; viivalla varustettua vihreää pistettä, niin voit zoomata ulos tai vihreitä nuolia, niin pääset viereisille kartoille.


METAR-TAF: